Hauptseite
METAR-TAF:

METAR-TAF

Flughäfen :

Militärflugplatz Dübendorf

Dübendorf, Schweiz

Breite: 47-23-55N, Länge: 8-38-53E, Höhe: 448 m

Beobachtung

Neuester Wetterbericht von vor 1 Stunde und 43 Minuten, um 14:20 UTC
Wind 5 kt aus Ost, variierte zwischen Nordost und Ost/Südost
Temperatur 21°C
Luftfeuchtigkeit 64%
Luftdruck 1024 hPa
Sichtweite 10 km oder mehr
Durchbrochene Bewölkung in der Höhe von 3100 ft

METAR: LSMD 231420Z 09005KT 040V120 9999 BKN031 21/14 Q1024 RMK BLU

Zeit: 18:03 (16:03 UTC)


TAF: fehlend

Wetterbeobachtungen und Prognosen von mehr als 4000 Flughäfen (METAR und TAF Bericht).

Die verfügbaren Stationen werden durch gelbe und rote Markierungen auf der Karte dargestellt.

Führen Sie die Maus auf sie, um den Namen der Station zu sehen.

Darauf klicken, um die Beobachtung von Wetterbeobachtungen und Prognosen zu sehen.

Um die Karte zu ändern : klicken Sie auf den grünen Tasten mit einem schwarzen Kreuz Zum Vergrößern, auf den grünen Button mit einem Gedankenstrich zu verkleinern, oder auf die grünen Pfeile für benachbarte Karten.


METAR-TAF: